Airfield :
LOGIN :

Register | Disclaimer

   EN    FR    IT 

 










Legend :    VFR   Marginal VFR   IFR   Intensive IFR   Very Intensive IFR
Visi :
Ceiling :
>= 8 km
>= 3000ft
5 to 8 km
1000 to 3000 ft
1500m to 5 km
500 to 1000 ft
800 to 1500m
200 to 500 ft
< 800m
< 200 ft
Symbols :   Thunderstorms  Fog  Heavy snow  Heavy precipitations  Wind > 20 kt
SIGMETs :     Misc.  Thunderstorms  Icing  Turbulence  Mountain Waves  Volcanic Ashes







- Airport Elevation : 59 ft
- IATA code : TSF


LIPH - Treviso

CURRENT METAR :
  • 222220Z AUTO 04003KT 360V060 9000 BKN031/// OVC100/// 17/15 Q1016

EXPIRED METARs :
  • 222150Z AUTO 02003KT 330V050 7000 OVC110/// 17/15 Q1016
  • 222120Z AUTO 02003KT 9000 BKN100/// OVC120/// 17/15 Q1015
  • 222050Z VRB01KT 9999 FEW060 17/15 Q1015
  • 222020Z VRB02KT 9999 FEW060 17/15 Q1015
  • 221950Z VRB02KT 9999 FEW060 17/15 Q1015

TAF TAF LIPH
Valid from the 22 at 18:00 until the 23 at 18:00 UTC


221700Z 2218/2318 VRB05KT 8000 SCT040
TEMPO 2218/2221 TSRA
TEMPO 2222/2305 2000 BR
No reported NOTAMs for that airfield.



MET'MAP, your aeronautical weather chart ! - Copyright ORBIFLY December 2007 - Disclaimer

ORBIFLY MET'MAP TEAM :

Programming & Development : Alexandra Zaïnal
Concept & Development : Baudouin d'Aumeries
Co-Development & Prog : Marc-Olivier Méhu
Technical & hardware support : Manuel Goepfert

Contact : metmap@orbifly.com




SOURCES & CREDITS :

   NOAA